Aérodrome :
LOGIN :

S'inscrire | Disclaimer

   EN    FR    IT 

 










Légende :    VFR   VFR Marginal   IFR   IFR Intensif   IFR Très Intensif
Visi : 
Plafond : 
>= 8 km
>= 3000ft
5 à 8 km
1000 à 3000 ft
1500m à 5 km
500 à 1000 ft
800 à 1500m
200 à 500 ft
< 800m
< 200 ft
Symboles :   Orages  Brouillard  Fortes neiges  Fortes précipitations  Vent > 20 kt
SIGMETs :   Divers  Orages  Givrage  Turbulence  Onde Orograph.  Cendres Volcan.






- Altitude de l'aérodrome : 681 ft
- Code IATA : LBA


EGNM - Leeds Bradford

DERNIER METAR :
  • 140320Z 22006KT CAVOK 08/07 Q1009

METARs EXPIRÉS :
  • 140250Z 22005KT CAVOK 07/06 Q1008
  • 140220Z 21005KT CAVOK 08/07 Q1008
  • 140150Z 24008KT CAVOK 08/07 Q1008
  • 140120Z 23007KT CAVOK 08/07 Q1008
  • 140050Z 25007KT CAVOK 08/07 Q1008

TAF TAF EGNM
Valide du 14 à 00h jusqu'au 15 à 00h UTC


132257Z 1400/1424 VRB04KT 9999 FEW020
PROB40 1400/1409 1200 BR BKN002
BECMG 1409/1412 09010KT
PROB40
TEMPO 1410/1413 BKN006
BECMG 1413/1416 BKN005
TEMPO 1414/1422 2000 RADZ BR BKN002
BECMG 1418/1421 02009KT
PROB40
TEMPO 1422/1424 4000 BR BKN003
ATIS : +44 113 250 9696 (x2489)



MET'MAP, la Météo Aéronautique d'un coup d'oeil ! - Copyright ORBIFLY Décembre 2007 - Disclaimer

ORBIFLY MET'MAP TEAM :

Programmation & Développement : Alexandra Zaïnal
Conception & Développement : Baudouin d'Aumeries
Co-Programmation & Développement : Marc-Olivier Méhu
Soutien technique & logistique : Manuel Goepfert

Contact : metmap@orbifly.com




SOURCES & CREDITS :

   NOAA